Terminal Aerodrome Forecast
Issued by NWS

Home | Current Version | Previous Version | Graphics & Text | Print | Product List | Glossary On
Versions: 1 2 3 4 5 6 7 8 9 10 11 12 13 14 15
000
FTUS43 KICT 141700
TAFSLN
TAF
KSLN 141720Z 1418/1518 35018G30KT P6SM SKC
     FM150100 30008KT P6SM SKC
     FM151500 21014G22KT P6SM SKC=

USA.gov is the U.S. government's official web portal to all federal, state and local government web resources and services.